createdAt,value
2023-05-09T00:10:27.835Z,67.62
2023-05-09T00:15:32.434Z,67.48
2023-05-09T00:20:49.733Z,67.56
2023-05-09T00:37:42.203Z,67.75
2023-05-09T00:42:46.100Z,67.83
2023-05-09T00:48:40.840Z,68.11
2023-05-09T00:54:10.345Z,68.04
2023-05-09T01:06:49.337Z,67.16
2023-05-09T01:12:31.749Z,67.75
2023-05-09T01:17:54.174Z,69.29
2023-05-09T01:23:47.522Z,69.49
2023-05-09T01:29:34.160Z,69.46
2023-05-09T01:35:32.277Z,69.57
2023-05-09T01:40:39.175Z,69.50
2023-05-09T01:45:45.338Z,69.78
2023-05-09T01:50:49.658Z,70.32
2023-05-09T02:10:36.103Z,70.25
2023-05-09T02:22:48.482Z,70.28
2023-05-09T02:29:08.660Z,70.50
2023-05-09T02:34:13.926Z,70.50
2023-05-09T02:39:17.781Z,70.39
2023-05-09T02:44:21.513Z,70.67
2023-05-09T02:49:31.986Z,71.31
2023-05-09T02:56:14.435Z,71.24
2023-05-09T03:02:51.213Z,71.21
2023-05-09T03:09:12.375Z,71.23
2023-05-09T03:14:16.303Z,71.40
2023-05-09T03:26:10.653Z,71.49
2023-05-09T03:31:14.410Z,71.29
2023-05-09T03:36:18.392Z,70.96
2023-05-09T03:50:07.915Z,70.60
2023-05-09T03:55:12.629Z,70.07
2023-05-09T04:01:03.477Z,69.66
2023-05-09T04:06:58.013Z,69.27
2023-05-09T04:19:34.009Z,68.50
2023-05-09T04:24:37.740Z,68.10
2023-05-09T04:30:23.031Z,67.87
2023-05-09T04:36:04.803Z,67.18
2023-05-09T04:41:09.068Z,66.79
2023-05-09T04:47:34.861Z,66.54
2023-05-09T04:53:16.673Z,66.11
2023-05-09T04:58:21.277Z,65.52
2023-05-09T05:03:41.025Z,65.17
2023-05-09T05:23:34.067Z,62.01
2023-05-09T05:33:09.192Z,61.04
2023-05-09T05:38:13.876Z,60.83
2023-05-09T05:43:26.678Z,60.06
2023-05-09T05:56:01.442Z,58.13
2023-05-09T06:01:23.734Z,57.24
2023-05-09T06:06:28.311Z,56.24
2023-05-09T06:11:51.458Z,55.06
2023-05-09T06:24:23.897Z,52.17
2023-05-09T06:29:55.381Z,51.72
2023-05-09T06:34:59.193Z,51.51
2023-05-09T06:40:39.265Z,49.94
2023-05-09T06:46:08.478Z,48.04
2023-05-09T06:58:05.408Z,44.92
2023-05-09T07:03:34.321Z,43.85
2023-05-09T07:08:38.467Z,42.63
2023-05-09T07:15:39.664Z,41.88
2023-05-09T07:21:35.283Z,40.08
2023-05-09T07:26:40.510Z,39.26
2023-05-09T07:33:05.777Z,38.13
2023-05-09T07:38:11.924Z,37.60
2023-05-09T07:57:40.254Z,34.24
2023-05-09T08:03:44.753Z,32.83
2023-05-09T08:10:07.265Z,32.38
2023-05-09T08:16:09.217Z,31.07
2023-05-09T08:21:40.940Z,31.18
2023-05-09T08:26:45.470Z,31.00
2023-05-09T08:32:52.122Z,31.33
2023-05-09T08:38:21.625Z,32.76
2023-05-09T08:50:45.037Z,30.48
2023-05-09T08:56:14.206Z,31.98
2023-05-09T09:01:49.044Z,30.14
2023-05-09T09:07:19.674Z,30.31
2023-05-09T09:13:07.518Z,30.16
2023-05-09T09:18:28.661Z,30.86
2023-05-09T09:24:17.962Z,29.56
2023-05-09T09:29:29.134Z,29.59
2023-05-09T09:34:33.526Z,27.94
2023-05-09T09:39:56.797Z,28.25
2023-05-09T09:45:04.549Z,27.95
2023-05-09T09:50:13.909Z,27.47
2023-05-09T09:56:47.060Z,27.88
2023-05-09T10:02:25.188Z,27.35
2023-05-09T10:07:38.854Z,27.94
2023-05-09T10:13:26.837Z,27.56
2023-05-09T10:18:31.997Z,26.93
2023-05-09T10:24:03.025Z,27.01
2023-05-09T10:29:13.094Z,27.43
2023-05-09T10:34:58.709Z,27.17
2023-05-09T10:41:20.054Z,26.91
2023-05-09T10:47:14.685Z,26.66
2023-05-09T10:52:24.851Z,25.64
2023-05-09T10:57:55.475Z,25.48
2023-05-09T11:03:11.120Z,25.77
2023-05-09T11:08:33.595Z,25.33
2023-05-09T11:21:12.138Z,25.18
2023-05-09T11:26:17.073Z,25.97
2023-05-09T11:31:35.029Z,25.86
2023-05-09T11:37:10.274Z,25.87
2023-05-09T11:49:17.601Z,25.68
2023-05-09T11:55:14.699Z,25.85
2023-05-09T12:00:26.741Z,25.09
2023-05-09T12:05:56.513Z,25.90
2023-05-09T12:11:10.102Z,25.98
2023-05-09T12:16:47.230Z,25.55
2023-05-09T12:23:12.986Z,26.58
2023-05-09T12:28:18.700Z,25.78
2023-05-09T12:33:25.793Z,25.41
2023-05-09T12:38:31.247Z,25.98
2023-05-09T12:43:39.974Z,25.89
2023-05-09T12:48:45.173Z,26.21
2023-05-09T12:53:53.290Z,26.58
2023-05-09T12:58:59.130Z,25.85
2023-05-09T13:04:07.138Z,26.08
2023-05-09T13:09:13.273Z,26.35
2023-05-09T13:14:22.375Z,25.83
2023-05-09T13:19:26.361Z,25.89
2023-05-09T13:31:36.210Z,25.47
2023-05-09T13:36:42.269Z,25.81
2023-05-09T13:41:46.219Z,25.61
2023-05-09T13:54:10.368Z,25.68
2023-05-09T14:06:18.745Z,25.55
2023-05-09T14:12:14.846Z,25.74
2023-05-09T14:17:49.494Z,25.67
2023-05-09T14:24:16.522Z,25.60
2023-05-09T14:54:36.859Z,26.03
2023-05-09T14:59:40.945Z,25.94
2023-05-09T15:04:45.334Z,25.43
2023-05-09T15:18:28.896Z,23.69
2023-05-09T15:23:32.532Z,23.83
2023-05-09T15:28:36.793Z,23.24
2023-05-09T15:34:31.193Z,23.63
2023-05-09T15:39:36.046Z,23.89
2023-05-09T15:44:44.038Z,23.56
2023-05-09T15:49:48.151Z,23.47
2023-05-09T15:55:17.364Z,23.27
2023-05-09T16:00:21.929Z,23.47
2023-05-09T16:16:25.035Z,24.53
2023-05-09T16:22:44.855Z,24.71
2023-05-09T16:28:02.513Z,25.06
2023-05-09T16:33:14.723Z,25.33
2023-05-09T16:38:19.369Z,25.78
2023-05-09T16:43:23.180Z,26.01
2023-05-09T16:55:42.542Z,26.78
2023-05-09T17:00:54.364Z,26.95
2023-05-09T17:05:58.388Z,26.90
2023-05-09T17:11:02.214Z,27.21
2023-05-09T17:24:21.914Z,28.62
2023-05-09T17:29:46.153Z,28.81
2023-05-09T17:35:15.367Z,28.92
2023-05-09T17:40:55.248Z,29.46
2023-05-09T17:46:00.592Z,29.80
2023-05-09T18:00:15.031Z,31.06
2023-05-09T18:05:19.714Z,31.41
2023-05-09T18:10:49.636Z,31.91
2023-05-09T18:15:55.297Z,32.29
2023-05-09T18:21:01.297Z,32.59
2023-05-09T18:34:40.001Z,33.39
2023-05-09T18:48:16.016Z,34.69
2023-05-09T18:53:20.774Z,35.03
2023-05-09T18:59:16.646Z,35.31
2023-05-09T19:12:51.380Z,36.20
2023-05-09T19:19:17.121Z,36.82
2023-05-09T19:38:44.241Z,38.92
2023-05-09T19:44:40.715Z,39.49
2023-05-09T19:49:45.178Z,40.31
2023-05-09T20:09:56.072Z,42.47
2023-05-09T20:15:02.742Z,43.10
2023-05-09T20:34:36.379Z,44.63
2023-05-09T20:47:08.177Z,45.44
2023-05-09T21:02:57.544Z,46.78
2023-05-09T21:15:07.544Z,49.26
2023-05-09T21:20:11.944Z,50.17
2023-05-09T21:33:04.518Z,50.92
2023-05-09T21:39:34.651Z,51.11
2023-05-09T21:44:38.720Z,51.76
2023-05-09T21:56:31.757Z,52.49
2023-05-09T22:02:01.017Z,53.02
2023-05-09T22:07:45.777Z,53.35
2023-05-09T22:21:03.186Z,54.01
2023-05-09T22:27:09.168Z,54.47
2023-05-09T22:39:17.176Z,55.63
2023-05-09T22:44:47.551Z,55.79
2023-05-09T22:57:13.027Z,56.92
2023-05-09T23:10:24.339Z,57.35
2023-05-09T23:16:18.282Z,57.72
2023-05-09T23:36:05.688Z,59.26
2023-05-09T23:41:13.097Z,59.81
2023-05-09T23:46:17.231Z,59.90
2023-05-09T23:51:22.791Z,60.24
